createdAt,value
2023-04-15T00:00:16.362Z,4.46
2023-04-15T00:01:16.370Z,4.47
2023-04-15T00:02:16.540Z,4.42
2023-04-15T00:03:16.500Z,4.27
2023-04-15T00:04:16.583Z,4.43
2023-04-15T00:05:16.383Z,4.48
2023-04-15T00:06:16.338Z,4.25
2023-04-15T00:07:16.363Z,4.31
2023-04-15T00:08:16.359Z,4.38
2023-04-15T00:09:16.415Z,4.26
2023-04-15T00:10:16.470Z,4.36
2023-04-15T00:11:16.525Z,4.35
2023-04-15T00:12:16.583Z,4.36
2023-04-15T00:13:16.666Z,4.16
2023-04-15T00:14:16.705Z,4.20
2023-04-15T00:15:16.774Z,4.28
2023-04-15T00:16:16.840Z,4.27
2023-04-15T00:17:16.868Z,4.22
2023-04-15T00:18:16.959Z,4.21
2023-04-15T00:19:17.020Z,4.22
2023-04-15T00:20:17.062Z,4.19
2023-04-15T00:21:17.153Z,4.21
2023-04-15T00:22:17.174Z,4.27
2023-04-15T00:23:17.323Z,4.22
2023-04-15T00:24:17.272Z,4.13
2023-04-15T00:25:17.417Z,4.22
2023-04-15T00:26:17.523Z,4.25
2023-04-15T00:27:17.462Z,4.17
2023-04-15T00:28:17.516Z,4.26
2023-04-15T00:29:17.573Z,4.24
2023-04-15T00:30:17.626Z,4.11
2023-04-15T00:31:17.719Z,4.17
2023-04-15T00:32:17.695Z,4.18
2023-04-15T00:33:17.763Z,4.35
2023-04-15T00:34:17.757Z,4.09
2023-04-15T00:35:17.803Z,4.07
2023-04-15T00:36:17.900Z,4.33
2023-04-15T00:37:17.896Z,4.33
2023-04-15T00:38:17.934Z,4.36
2023-04-15T00:39:17.941Z,4.08
2023-04-15T00:40:18.008Z,4.16
2023-04-15T00:41:18.022Z,4.08
2023-04-15T00:42:18.007Z,4.08
2023-04-15T00:43:18.067Z,4.05
2023-04-15T00:44:18.136Z,4.31
2023-04-15T00:45:18.197Z,4.05
2023-04-15T00:46:18.346Z,4.15
2023-04-15T00:47:18.258Z,4.07
2023-04-15T00:48:18.309Z,4.21
2023-04-15T00:49:18.348Z,4.02
2023-04-15T00:50:18.404Z,4.09
2023-04-15T00:51:18.399Z,4.04
2023-04-15T00:52:18.417Z,4.09
2023-04-15T00:53:18.449Z,4.07
2023-04-15T00:54:18.515Z,4.13
2023-04-15T00:55:18.514Z,4.14
2023-04-15T00:56:18.536Z,4.00
2023-04-15T00:57:18.565Z,4.07
2023-04-15T00:58:18.608Z,4.04
2023-04-15T00:59:18.663Z,4.14
2023-04-15T01:00:18.696Z,4.12
2023-04-15T01:01:18.725Z,4.09
2023-04-15T01:02:18.859Z,4.19
2023-04-15T01:03:18.848Z,4.15
2023-04-15T01:04:19.055Z,4.19
2023-04-15T01:05:18.904Z,4.07
2023-04-15T01:06:18.951Z,4.00
2023-04-15T01:07:18.964Z,4.03
2023-04-15T01:08:19.007Z,4.01
2023-04-15T01:09:19.179Z,4.05
2023-04-15T01:10:19.157Z,3.89
2023-04-15T01:11:19.239Z,4.09
2023-04-15T01:12:19.298Z,3.97
2023-04-15T01:13:19.306Z,3.86
2023-04-15T01:14:19.424Z,3.94
2023-04-15T01:15:19.366Z,3.94
2023-04-15T01:16:19.460Z,3.94
2023-04-15T01:17:19.507Z,3.93
2023-04-15T01:18:19.544Z,3.97
2023-04-15T01:19:19.553Z,3.94
2023-04-15T01:20:19.569Z,4.00
2023-04-15T01:21:19.609Z,3.98
2023-04-15T01:22:19.725Z,4.11
2023-04-15T01:23:19.736Z,3.87
2023-04-15T01:24:19.802Z,3.97
2023-04-15T01:25:19.765Z,3.84
2023-04-15T01:26:19.843Z,3.95
2023-04-15T01:27:19.906Z,4.02
2023-04-15T01:28:19.974Z,3.82
2023-04-15T01:29:20.027Z,3.88
2023-04-15T01:30:20.088Z,3.90
2023-04-15T01:31:20.057Z,3.90
2023-04-15T01:32:20.122Z,3.90
2023-04-15T01:33:20.122Z,3.85
2023-04-15T01:34:20.217Z,3.83
2023-04-15T01:35:20.221Z,3.79
2023-04-15T01:36:20.262Z,3.79
2023-04-15T01:37:20.286Z,3.80
2023-04-15T01:38:20.402Z,4.01
2023-04-15T01:39:20.405Z,3.84
2023-04-15T01:40:20.466Z,3.82
2023-04-15T01:41:20.468Z,3.93
2023-04-15T01:42:20.505Z,3.82
2023-04-15T01:43:20.513Z,3.82
2023-04-15T01:44:20.592Z,3.81
2023-04-15T01:45:20.599Z,3.77
2023-04-15T01:46:20.627Z,3.84
2023-04-15T01:47:20.671Z,3.81
2023-04-15T01:48:20.725Z,3.81
2023-04-15T01:49:20.798Z,3.87
2023-04-15T01:50:20.798Z,3.89
2023-04-15T01:51:20.839Z,3.90
2023-04-15T01:52:20.901Z,3.74
2023-04-15T01:53:20.912Z,3.74
2023-04-15T01:54:20.976Z,3.76
2023-04-15T01:55:20.970Z,3.80
2023-04-15T01:56:21.013Z,3.69
2023-04-15T01:57:21.084Z,3.73
2023-04-15T01:58:21.134Z,3.76
2023-04-15T01:59:21.163Z,3.68
2023-04-15T02:00:21.210Z,3.83
2023-04-15T02:01:21.242Z,3.68
2023-04-15T02:02:21.344Z,3.82
2023-04-15T02:03:21.372Z,3.69
2023-04-15T02:04:21.311Z,3.70
2023-04-15T02:05:21.350Z,3.79
2023-04-15T02:06:21.437Z,3.70
2023-04-15T02:07:21.398Z,3.67
2023-04-15T02:08:21.474Z,3.68
2023-04-15T02:09:21.529Z,3.64
2023-04-15T02:10:21.524Z,3.69
2023-04-15T02:11:21.593Z,3.69
2023-04-15T02:12:21.613Z,3.76
2023-04-15T02:13:21.667Z,3.60
2023-04-15T02:14:21.685Z,3.60
2023-04-15T02:15:21.746Z,3.63
2023-04-15T02:16:21.773Z,3.63
2023-04-15T02:17:21.886Z,3.63
2023-04-15T02:18:21.922Z,3.66
2023-04-15T02:19:21.950Z,3.75
2023-04-15T02:20:22.097Z,3.65
2023-04-15T02:21:22.073Z,3.67
2023-04-15T02:22:22.193Z,3.67
2023-04-15T02:23:22.156Z,3.67
2023-04-15T02:24:22.189Z,3.62
2023-04-15T02:25:22.223Z,3.58
2023-04-15T02:26:22.266Z,3.79
2023-04-15T02:27:22.282Z,3.72
2023-04-15T02:28:22.325Z,3.62
2023-04-15T02:29:22.357Z,3.65
2023-04-15T02:30:22.394Z,3.56
2023-04-15T02:31:22.456Z,3.57
2023-04-15T02:32:22.441Z,3.59
2023-04-15T02:33:22.500Z,3.61
2023-04-15T02:34:22.498Z,3.61
2023-04-15T02:35:22.532Z,3.53
2023-04-15T02:36:22.578Z,3.56
2023-04-15T02:37:22.628Z,3.58
2023-04-15T02:38:22.644Z,3.57
2023-04-15T02:39:22.701Z,3.53
2023-04-15T02:40:22.774Z,3.56
2023-04-15T02:41:22.780Z,3.57
2023-04-15T02:42:22.837Z,3.61
2023-04-15T02:43:22.844Z,3.63
2023-04-15T02:44:22.883Z,3.69
2023-04-15T02:45:22.910Z,3.55
2023-04-15T02:46:23.113Z,3.58
2023-04-15T02:47:23.014Z,3.50
2023-04-15T02:48:23.040Z,3.53
2023-04-15T02:49:23.078Z,3.51
2023-04-15T02:50:23.118Z,3.59
2023-04-15T02:51:23.230Z,3.50
2023-04-15T02:52:23.205Z,3.53
2023-04-15T02:53:23.256Z,3.67
2023-04-15T02:54:23.322Z,3.50
2023-04-15T02:55:23.353Z,3.53
2023-04-15T02:56:23.396Z,3.56
2023-04-15T02:57:23.449Z,3.61
2023-04-15T02:58:23.483Z,3.59
2023-04-15T02:59:23.514Z,3.41
2023-04-15T03:00:23.567Z,3.44
2023-04-15T03:01:23.699Z,3.49
2023-04-15T03:02:23.862Z,3.49
2023-04-15T03:03:23.752Z,3.47
2023-04-15T03:04:23.803Z,3.51
2023-04-15T03:05:23.798Z,3.45
2023-04-15T03:06:23.895Z,3.50
2023-04-15T03:07:23.919Z,3.43
2023-04-15T03:08:23.944Z,3.46
2023-04-15T03:09:24.030Z,3.42
2023-04-15T03:10:24.081Z,3.42
2023-04-15T03:11:24.107Z,3.42
2023-04-15T03:12:24.209Z,3.35
2023-04-15T03:13:24.266Z,3.40
2023-04-15T03:14:24.229Z,3.39
2023-04-15T03:15:24.309Z,3.54
2023-04-15T03:16:24.312Z,3.41
2023-04-15T03:17:24.346Z,3.44
2023-04-15T03:18:24.414Z,3.44
2023-04-15T03:19:24.458Z,3.38
2023-04-15T03:20:24.512Z,3.43
2023-04-15T03:21:24.532Z,3.33
2023-04-15T03:22:24.563Z,3.45
2023-04-15T03:23:24.599Z,3.33
2023-04-15T03:24:24.650Z,3.56
2023-04-15T03:25:24.716Z,3.42
2023-04-15T03:26:24.801Z,3.40
2023-04-15T03:27:24.813Z,3.45
2023-04-15T03:28:24.798Z,3.39
2023-04-15T03:29:24.879Z,3.29
2023-04-15T03:30:24.913Z,3.35
2023-04-15T03:31:25.059Z,3.34
2023-04-15T03:32:25.081Z,3.25
2023-04-15T03:33:25.113Z,3.36
2023-04-15T03:34:25.150Z,3.36
2023-04-15T03:35:25.188Z,3.35
2023-04-15T03:36:25.243Z,3.35
2023-04-15T03:37:25.298Z,3.33
2023-04-15T03:38:25.306Z,3.38
2023-04-15T03:39:25.466Z,3.27
2023-04-15T03:40:25.405Z,3.32
2023-04-15T03:41:25.478Z,3.33
2023-04-15T03:42:25.511Z,3.34
2023-04-15T03:43:25.555Z,3.33
2023-04-15T03:44:25.603Z,3.26
2023-04-15T03:45:25.712Z,3.29
2023-04-15T03:46:25.770Z,3.26
2023-04-15T03:47:25.789Z,3.32
2023-04-15T03:48:25.765Z,3.21
2023-04-15T03:49:25.837Z,3.27
2023-04-15T03:50:25.879Z,3.19
2023-04-15T03:51:25.961Z,3.29
2023-04-15T03:52:25.953Z,3.28
2023-04-15T03:53:26.018Z,3.24
2023-04-15T03:54:26.064Z,3.23
2023-04-15T03:55:26.115Z,3.23
2023-04-15T03:56:26.140Z,3.17
2023-04-15T03:57:26.203Z,3.21
2023-04-15T03:58:26.246Z,3.26
2023-04-15T03:59:26.285Z,3.18
2023-04-15T04:00:26.367Z,3.24
2023-04-15T04:01:26.370Z,3.19
2023-04-15T04:02:26.748Z,3.17
2023-04-15T04:03:26.701Z,3.11
2023-04-15T04:04:26.568Z,3.11
2023-04-15T04:05:26.595Z,3.18
2023-04-15T04:06:26.609Z,3.07
2023-04-15T04:07:26.643Z,3.09
2023-04-15T04:08:26.689Z,3.06
2023-04-15T04:09:26.702Z,3.07
2023-04-15T04:10:26.801Z,3.06
2023-04-15T04:11:26.779Z,3.03
2023-04-15T04:12:26.860Z,3.03
2023-04-15T04:13:26.852Z,3.05
2023-04-15T04:14:26.923Z,3.03
2023-04-15T04:15:26.986Z,3.04
2023-04-15T04:16:27.164Z,3.02
2023-04-15T04:17:27.065Z,3.04
2023-04-15T04:18:27.113Z,3.03
2023-04-15T04:19:27.095Z,2.96
2023-04-15T04:20:27.120Z,2.99
2023-04-15T04:21:27.192Z,2.94
2023-04-15T04:22:27.209Z,2.93
2023-04-15T04:23:27.197Z,3.00
2023-04-15T04:24:27.235Z,2.92
2023-04-15T04:25:27.258Z,2.91
2023-04-15T04:26:27.289Z,2.87
2023-04-15T04:27:27.369Z,2.93
2023-04-15T04:28:27.334Z,2.90
2023-04-15T04:29:27.396Z,2.93
2023-04-15T04:30:27.347Z,2.84
2023-04-15T04:31:27.506Z,2.90
2023-04-15T04:32:27.472Z,2.80
2023-04-15T04:33:27.459Z,2.84
2023-04-15T04:34:27.482Z,2.84
2023-04-15T04:35:27.524Z,2.87
2023-04-15T04:36:27.493Z,2.80
2023-04-15T04:37:27.491Z,2.79
2023-04-15T04:38:27.484Z,2.84
2023-04-15T04:39:27.472Z,2.80
2023-04-15T04:40:27.537Z,2.82
2023-04-15T04:41:27.547Z,2.74
2023-04-15T04:42:27.631Z,2.83
2023-04-15T04:43:27.639Z,2.84
2023-04-15T04:44:27.623Z,2.84
2023-04-15T04:45:27.648Z,2.77
2023-04-15T04:46:27.712Z,2.77
2023-04-15T04:47:27.684Z,2.76
2023-04-15T04:48:27.714Z,2.74
2023-04-15T04:49:27.709Z,2.73
2023-04-15T04:50:27.743Z,2.80
2023-04-15T04:51:27.735Z,2.72
2023-04-15T04:52:27.749Z,2.76
2023-04-15T04:53:27.799Z,2.71
2023-04-15T04:54:27.923Z,2.70
2023-04-15T04:55:27.868Z,2.66
2023-04-15T04:56:27.926Z,2.69
2023-04-15T04:57:27.856Z,2.73
2023-04-15T04:58:27.972Z,2.74
2023-04-15T04:59:27.903Z,2.70
2023-04-15T05:00:27.908Z,2.70
2023-04-15T05:01:28.015Z,2.71
2023-04-15T05:02:28.249Z,2.70
2023-04-15T05:03:28.204Z,2.72
2023-04-15T05:04:28.087Z,2.67
2023-04-15T05:05:28.193Z,2.61
2023-04-15T05:06:28.164Z,2.60
2023-04-15T05:07:28.227Z,2.65
2023-04-15T05:08:28.168Z,2.69
2023-04-15T05:09:28.227Z,2.58
2023-04-15T05:10:28.224Z,2.64
2023-04-15T05:11:28.240Z,2.61
2023-04-15T05:12:28.231Z,2.58
2023-04-15T05:13:28.286Z,2.63
2023-04-15T05:14:28.252Z,2.61
2023-04-15T05:15:28.363Z,2.56
2023-04-15T05:16:28.269Z,2.57
2023-04-15T05:17:28.286Z,2.58
2023-04-15T05:18:28.236Z,2.60
2023-04-15T05:19:28.294Z,2.59
2023-04-15T05:20:28.249Z,2.49
2023-04-15T05:21:28.260Z,2.51
2023-04-15T05:22:28.264Z,2.50
2023-04-15T05:23:28.314Z,2.46
2023-04-15T05:24:28.318Z,2.51
2023-04-15T05:25:28.327Z,2.46
2023-04-15T05:26:28.390Z,2.51
2023-04-15T05:27:28.372Z,2.47
2023-04-15T05:28:28.454Z,2.44
2023-04-15T05:29:28.468Z,2.45
2023-04-15T05:30:28.464Z,2.44
2023-04-15T05:31:28.654Z,2.42
2023-04-15T05:32:28.536Z,2.46
2023-04-15T05:33:28.533Z,2.38
2023-04-15T05:34:28.594Z,2.41
2023-04-15T05:35:28.608Z,2.43
2023-04-15T05:36:28.623Z,2.42
2023-04-15T05:37:28.739Z,2.39
2023-04-15T05:38:28.679Z,2.37
2023-04-15T05:39:28.693Z,2.40
2023-04-15T05:40:28.734Z,2.35
2023-04-15T05:41:28.786Z,2.35
2023-04-15T05:42:28.801Z,2.37
2023-04-15T05:43:28.793Z,2.29
2023-04-15T05:44:28.801Z,2.33
2023-04-15T05:45:28.815Z,2.33
2023-04-15T05:46:28.868Z,2.33
2023-04-15T05:47:29.042Z,2.30
2023-04-15T05:48:28.909Z,2.32
2023-04-15T05:49:28.936Z,2.29
2023-04-15T05:50:28.929Z,2.28
2023-04-15T05:51:28.963Z,2.28
2023-04-15T05:52:28.954Z,2.26
2023-04-15T05:53:29.031Z,2.26
2023-04-15T05:54:29.030Z,2.25
2023-04-15T05:55:29.006Z,2.28
2023-04-15T05:56:29.004Z,2.25
2023-04-15T05:57:29.012Z,2.25
2023-04-15T05:58:29.092Z,2.29
2023-04-15T05:59:29.107Z,2.22
2023-04-15T06:00:29.130Z,2.18
2023-04-15T06:01:29.186Z,2.21
2023-04-15T06:02:29.370Z,2.23
2023-04-15T06:03:29.364Z,2.15
2023-04-15T06:04:29.407Z,2.17
2023-04-15T06:05:29.328Z,2.21
2023-04-15T06:06:29.350Z,2.16
2023-04-15T06:07:29.378Z,2.20
2023-04-15T06:08:29.381Z,2.22
2023-04-15T06:09:29.526Z,2.09
2023-04-15T06:10:29.476Z,2.19
2023-04-15T06:11:29.521Z,2.17
2023-04-15T06:12:29.561Z,2.18
2023-04-15T06:13:29.619Z,2.11
2023-04-15T06:14:29.654Z,2.14
2023-04-15T06:15:29.685Z,2.12
2023-04-15T06:16:29.861Z,2.11
2023-04-15T06:17:29.781Z,2.10
2023-04-15T06:18:29.876Z,2.12
2023-04-15T06:19:29.858Z,2.10
2023-04-15T06:20:29.887Z,2.11
2023-04-15T06:21:29.977Z,2.11
2023-04-15T06:22:30.016Z,2.06
2023-04-15T06:23:30.106Z,2.09
2023-04-15T06:24:30.160Z,2.10
2023-04-15T06:25:30.135Z,2.11
2023-04-15T06:26:30.176Z,2.09
2023-04-15T06:27:30.190Z,2.12
2023-04-15T06:28:30.231Z,2.04
2023-04-15T06:29:30.298Z,2.07
2023-04-15T06:30:30.307Z,2.04
2023-04-15T06:31:30.401Z,2.01
2023-04-15T06:32:30.395Z,2.02
2023-04-15T06:33:30.467Z,2.08
2023-04-15T06:34:30.462Z,2.01
2023-04-15T06:35:30.508Z,2.01
2023-04-15T06:36:30.499Z,2.03
2023-04-15T06:37:30.557Z,2.04
2023-04-15T06:38:30.617Z,2.00
2023-04-15T06:39:30.618Z,2.00
2023-04-15T06:40:30.643Z,1.99
2023-04-15T06:41:30.732Z,1.97
2023-04-15T06:42:30.736Z,1.99
2023-04-15T06:43:30.728Z,2.00
2023-04-15T06:44:33.305Z,1.98
2023-04-15T06:45:30.856Z,1.99
2023-04-15T06:46:30.740Z,1.96
2023-04-15T06:47:30.797Z,1.98
2023-04-15T06:48:30.787Z,1.96
2023-04-15T06:49:30.723Z,1.93
2023-04-15T06:50:30.699Z,1.87
2023-04-15T06:51:30.751Z,1.91
2023-04-15T06:52:30.744Z,1.96
2023-04-15T06:53:30.775Z,1.89
2023-04-15T06:54:30.715Z,1.94
2023-04-15T06:55:30.714Z,1.86
2023-04-15T06:56:30.680Z,1.88
2023-04-15T06:57:31.550Z,1.87
2023-04-15T06:58:30.659Z,1.91
2023-04-15T06:59:30.653Z,1.85
2023-04-15T07:00:30.745Z,1.84
2023-04-15T07:01:30.821Z,1.87
2023-04-15T07:02:30.702Z,1.85
2023-04-15T07:03:32.647Z,1.86
2023-04-15T07:04:30.696Z,1.85
2023-04-15T07:05:30.640Z,1.81
2023-04-15T07:06:30.613Z,1.81
2023-04-15T07:07:30.624Z,1.85
2023-04-15T07:08:30.656Z,1.77
2023-04-15T07:09:30.688Z,1.81
2023-04-15T07:10:30.812Z,1.81
2023-04-15T07:11:30.835Z,1.75
2023-04-15T07:12:30.868Z,1.74
2023-04-15T07:13:30.960Z,1.72
2023-04-15T07:14:30.967Z,1.75
2023-04-15T07:15:31.076Z,1.74
2023-04-15T07:16:31.201Z,1.74
2023-04-15T07:17:31.170Z,1.73
2023-04-15T07:18:31.176Z,1.69
2023-04-15T07:19:31.249Z,1.72
2023-04-15T07:20:31.350Z,1.70
2023-04-15T07:21:31.368Z,1.67
2023-04-15T07:22:31.458Z,1.71
2023-04-15T07:23:31.486Z,1.68
2023-04-15T07:24:31.545Z,1.62
2023-04-15T07:25:31.598Z,1.66
2023-04-15T07:26:31.619Z,1.63
2023-04-15T07:27:31.713Z,1.58
2023-04-15T07:28:31.765Z,1.61
2023-04-15T07:29:31.823Z,1.58
2023-04-15T07:30:31.862Z,1.64
2023-04-15T07:31:31.920Z,1.58
2023-04-15T07:32:32.049Z,1.58
2023-04-15T07:33:31.985Z,1.59
2023-04-15T07:34:32.720Z,1.56
2023-04-15T07:35:32.123Z,1.58
2023-04-15T07:36:32.130Z,1.54
2023-04-15T07:37:32.197Z,1.54
2023-04-15T07:38:32.221Z,1.55
2023-04-15T07:39:32.328Z,1.53
2023-04-15T07:40:32.354Z,1.49
2023-04-15T07:41:32.361Z,1.52
2023-04-15T07:42:32.385Z,1.46
2023-04-15T07:43:32.430Z,1.50
2023-04-15T07:44:32.502Z,1.48
2023-04-15T07:45:32.570Z,1.49
2023-04-15T07:46:32.657Z,1.51
2023-04-15T07:47:32.645Z,1.45
2023-04-15T07:48:32.614Z,1.43
2023-04-15T07:49:32.620Z,1.46
2023-04-15T07:50:32.702Z,1.47
2023-04-15T07:51:32.692Z,1.49
2023-04-15T07:52:32.708Z,1.46
2023-04-15T07:53:32.751Z,1.51
2023-04-15T07:54:32.762Z,1.49
2023-04-15T07:55:32.824Z,1.46
2023-04-15T07:56:32.822Z,1.45
2023-04-15T07:57:32.839Z,1.47
2023-04-15T07:58:32.855Z,1.50
2023-04-15T07:59:32.860Z,1.49
2023-04-15T08:00:32.870Z,1.50
2023-04-15T08:01:32.925Z,1.50
2023-04-15T08:02:33.034Z,1.46
2023-04-15T08:03:33.022Z,1.48
2023-04-15T08:04:33.061Z,1.43
2023-04-15T08:05:32.895Z,1.40
2023-04-15T08:06:32.898Z,1.46
2023-04-15T08:07:32.953Z,1.44
2023-04-15T08:08:32.970Z,1.45
2023-04-15T08:09:32.974Z,1.46
2023-04-15T08:10:32.947Z,1.42
2023-04-15T08:11:32.962Z,1.41
2023-04-15T08:12:32.988Z,1.41
2023-04-15T08:13:33.012Z,1.39
2023-04-15T08:14:32.958Z,1.40
2023-04-15T08:15:32.992Z,1.41
2023-04-15T08:16:33.049Z,1.42
2023-04-15T08:17:32.963Z,1.40
2023-04-15T08:18:32.946Z,1.39
2023-04-15T08:19:32.942Z,1.42
2023-04-15T08:20:32.953Z,1.45
2023-04-15T08:21:33.001Z,1.40
2023-04-15T08:22:33.015Z,1.43
2023-04-15T08:23:33.035Z,1.40
2023-04-15T08:24:33.121Z,1.40
2023-04-15T08:25:33.182Z,1.40
2023-04-15T08:26:33.218Z,1.37
2023-04-15T08:27:33.279Z,1.39
2023-04-15T08:28:33.359Z,1.40
2023-04-15T08:29:33.467Z,1.36
2023-04-15T08:30:33.481Z,1.40
2023-04-15T08:31:33.557Z,1.41
2023-04-15T08:32:33.607Z,1.40
2023-04-15T08:33:33.629Z,1.35
2023-04-15T08:34:33.707Z,1.41
2023-04-15T08:35:33.747Z,1.38
2023-04-15T08:36:33.874Z,1.38
2023-04-15T08:37:33.879Z,1.37
2023-04-15T08:38:33.925Z,1.37
2023-04-15T08:39:33.968Z,1.41
2023-04-15T08:40:34.037Z,1.39
2023-04-15T08:41:34.088Z,1.37
2023-04-15T08:42:34.153Z,1.36
2023-04-15T08:43:34.212Z,1.40
2023-04-15T08:44:34.278Z,1.37
2023-04-15T08:45:34.292Z,1.37
2023-04-15T08:46:34.340Z,1.36
2023-04-15T08:47:34.540Z,1.36
2023-04-15T08:48:34.456Z,1.37
2023-04-15T08:49:34.511Z,1.35
2023-04-15T08:50:34.544Z,1.36
2023-04-15T08:51:34.602Z,1.36
2023-04-15T08:52:34.627Z,1.33
2023-04-15T08:53:34.772Z,1.29
2023-04-15T08:54:34.722Z,1.33
2023-04-15T08:55:34.746Z,1.31
2023-04-15T08:56:34.883Z,1.28
2023-04-15T08:57:34.891Z,1.27
2023-04-15T08:58:34.934Z,1.26
2023-04-15T08:59:34.997Z,1.23
2023-04-15T09:00:34.964Z,1.26
2023-04-15T09:01:35.158Z,1.24
2023-04-15T09:02:35.198Z,1.26
2023-04-15T09:03:35.176Z,1.28
2023-04-15T09:04:35.176Z,1.26
2023-04-15T09:05:35.163Z,1.27
2023-04-15T09:06:35.251Z,1.30
2023-04-15T09:07:35.247Z,1.26
2023-04-15T09:08:35.271Z,1.28
2023-04-15T09:09:35.309Z,1.28
2023-04-15T09:10:35.336Z,1.27
2023-04-15T09:11:35.456Z,1.26
2023-04-15T09:12:35.386Z,1.24
2023-04-15T09:13:35.427Z,1.26
2023-04-15T09:14:35.431Z,1.26
2023-04-15T09:15:35.467Z,1.26
2023-04-15T09:16:35.598Z,1.27
2023-04-15T09:17:35.524Z,1.30
2023-04-15T09:18:35.557Z,1.28
2023-04-15T09:19:35.561Z,1.27
2023-04-15T09:20:35.534Z,1.28
2023-04-15T09:21:35.574Z,1.30
2023-04-15T09:22:35.606Z,1.27
2023-04-15T09:23:35.549Z,1.28
2023-04-15T09:24:35.591Z,1.27
2023-04-15T09:25:35.627Z,1.28
2023-04-15T09:26:35.578Z,1.32
2023-04-15T09:27:35.604Z,1.31
2023-04-15T09:28:35.596Z,1.29
2023-04-15T09:29:35.626Z,1.29
2023-04-15T09:30:35.613Z,1.28
2023-04-15T09:31:35.610Z,1.33
2023-04-15T09:32:35.658Z,1.33
2023-04-15T09:33:35.631Z,1.28
2023-04-15T09:34:35.659Z,1.29
2023-04-15T09:35:35.589Z,1.31
2023-04-15T09:36:35.643Z,1.30
2023-04-15T09:37:35.638Z,1.29
2023-04-15T09:38:35.658Z,1.31
2023-04-15T09:39:35.635Z,1.33
2023-04-15T09:40:35.694Z,1.34
2023-04-15T09:41:35.730Z,1.31
2023-04-15T09:42:35.846Z,1.33
2023-04-15T09:43:35.828Z,1.33
2023-04-15T09:44:35.866Z,1.34
2023-04-15T09:45:35.938Z,1.35
2023-04-15T09:46:36.049Z,1.36
2023-04-15T09:47:36.070Z,1.31
2023-04-15T09:48:36.141Z,1.33
2023-04-15T09:49:36.183Z,1.34
2023-04-15T09:50:36.254Z,1.39
2023-04-15T09:51:36.258Z,1.33
2023-04-15T09:52:36.370Z,1.33
2023-04-15T09:53:36.353Z,1.36
2023-04-15T09:54:36.542Z,1.34
2023-04-15T09:55:36.492Z,1.32
2023-04-15T09:56:36.494Z,1.31
2023-04-15T09:57:36.636Z,1.32
2023-04-15T09:58:36.668Z,1.31
2023-04-15T09:59:36.694Z,1.30
2023-04-15T10:00:36.786Z,1.30
2023-04-15T10:01:36.900Z,1.28
2023-04-15T10:02:36.993Z,1.30
2023-04-15T10:03:37.019Z,1.27
2023-04-15T10:04:36.982Z,1.30
2023-04-15T10:05:37.077Z,1.29
2023-04-15T10:06:37.090Z,1.29
2023-04-15T10:07:37.154Z,1.30
2023-04-15T10:08:37.194Z,1.30
2023-04-15T10:09:37.243Z,1.32
2023-04-15T10:10:37.317Z,1.29
2023-04-15T10:11:37.432Z,1.28
2023-04-15T10:12:37.430Z,1.27
2023-04-15T10:13:37.568Z,1.27
2023-04-15T10:14:37.503Z,1.29
2023-04-15T10:15:37.709Z,1.27
2023-04-15T10:16:37.666Z,1.27
2023-04-15T10:17:37.748Z,1.27
2023-04-15T10:18:37.747Z,1.27
2023-04-15T10:19:37.822Z,1.30
2023-04-15T10:20:37.897Z,1.31
2023-04-15T10:21:38.014Z,1.28
2023-04-15T10:22:37.983Z,1.30
2023-04-15T10:23:38.040Z,1.28
2023-04-15T10:24:38.073Z,1.29
2023-04-15T10:25:38.125Z,1.29
2023-04-15T10:26:38.198Z,1.30
2023-04-15T10:27:38.237Z,1.28
2023-04-15T10:28:38.284Z,1.28
2023-04-15T10:29:38.332Z,1.25
2023-04-15T10:30:38.396Z,1.26
2023-04-15T10:31:38.504Z,1.28
2023-04-15T10:32:38.551Z,1.26
2023-04-15T10:33:38.557Z,1.27
2023-04-15T10:34:38.603Z,1.27
2023-04-15T10:35:38.638Z,1.26
2023-04-15T10:36:38.712Z,1.27
2023-04-15T10:37:38.793Z,1.30
2023-04-15T10:38:38.839Z,1.29
2023-04-15T10:39:38.890Z,1.27
2023-04-15T10:40:38.911Z,1.29
2023-04-15T10:41:38.947Z,1.27
2023-04-15T10:42:39.028Z,1.29
2023-04-15T10:43:39.084Z,1.27
2023-04-15T10:44:39.136Z,1.27
2023-04-15T10:45:39.193Z,1.31
2023-04-15T10:46:39.356Z,1.30
2023-04-15T10:47:39.338Z,1.27
2023-04-15T10:48:39.414Z,1.27
2023-04-15T10:49:39.453Z,1.28
2023-04-15T10:50:39.540Z,1.24
2023-04-15T10:51:39.526Z,1.25
2023-04-15T10:52:39.620Z,1.27
2023-04-15T10:53:39.652Z,1.29
2023-04-15T10:54:39.715Z,1.26
2023-04-15T10:55:39.737Z,1.31
2023-04-15T10:56:39.805Z,1.30
2023-04-15T10:57:39.850Z,1.27
2023-04-15T10:58:39.892Z,1.28
2023-04-15T10:59:39.920Z,1.29
2023-04-15T11:00:40.034Z,1.29
2023-04-15T11:01:40.058Z,1.27
2023-04-15T11:02:40.281Z,1.28
2023-04-15T11:03:40.454Z,1.28
2023-04-15T11:04:41.840Z,1.28
2023-04-15T11:05:40.263Z,1.29
2023-04-15T11:06:40.203Z,1.28
2023-04-15T11:07:40.214Z,1.28
2023-04-15T11:08:40.154Z,1.26
2023-04-15T11:09:40.169Z,1.29
2023-04-15T11:10:40.139Z,1.24
2023-04-15T11:11:40.126Z,1.29
2023-04-15T11:12:40.119Z,1.26
2023-04-15T11:13:40.163Z,1.27
2023-04-15T11:14:40.130Z,1.25
2023-04-15T11:15:40.116Z,1.24
2023-04-15T11:16:40.215Z,1.24
2023-04-15T11:17:40.109Z,1.24
2023-04-15T11:18:40.117Z,1.23
2023-04-15T11:19:40.060Z,1.24
2023-04-15T11:20:40.136Z,1.24
2023-04-15T11:21:40.048Z,1.21
2023-04-15T11:22:40.049Z,1.23
2023-04-15T11:23:40.097Z,1.24
2023-04-15T11:24:40.068Z,1.21
2023-04-15T11:26:29.899Z,0.50
2023-04-15T11:27:29.944Z,0.50
2023-04-15T11:28:29.845Z,0.50
2023-04-15T11:29:29.862Z,0.50
2023-04-15T11:30:29.863Z,0.50
2023-04-15T11:31:29.896Z,0.51
2023-04-15T11:32:29.834Z,0.50
2023-04-15T11:33:29.832Z,0.50
2023-04-15T11:34:29.838Z,0.51
2023-04-15T11:35:29.788Z,0.50
2023-04-15T11:36:29.877Z,0.50
2023-04-15T11:37:29.827Z,0.51
2023-04-15T11:38:29.823Z,0.51
2023-04-15T11:39:29.833Z,0.50
2023-04-15T11:40:29.772Z,0.51
2023-04-15T11:41:29.780Z,0.51
2023-04-15T11:42:42.783Z,0.52
2023-04-15T11:43:30.774Z,0.52
2023-04-15T11:44:29.760Z,0.52
2023-04-15T11:45:29.784Z,0.52
2023-04-15T11:46:29.737Z,0.51
2023-04-15T11:47:29.751Z,0.50
2023-04-15T11:48:29.733Z,0.51
2023-04-15T11:49:29.705Z,0.50
2023-04-15T11:50:29.706Z,0.51
2023-04-15T11:51:29.696Z,0.51
2023-04-15T11:52:29.678Z,0.51
2023-04-15T11:53:29.685Z,0.50
2023-04-15T11:54:29.669Z,0.51
2023-04-15T11:55:29.664Z,0.51
2023-04-15T11:56:29.668Z,0.52
2023-04-15T11:57:29.682Z,0.52
2023-04-15T11:58:29.682Z,0.51
2023-04-15T11:59:38.956Z,0.51
2023-04-15T12:00:30.685Z,0.51
2023-04-15T12:01:29.665Z,0.51
2023-04-15T12:02:29.783Z,0.51
2023-04-15T12:03:29.838Z,0.52
2023-04-15T12:04:29.923Z,0.51
2023-04-15T12:05:29.643Z,0.50
2023-04-15T12:06:29.578Z,0.53
2023-04-15T12:07:29.610Z,0.53
2023-04-15T12:08:29.611Z,0.51
2023-04-15T12:09:30.933Z,0.51
2023-04-15T12:10:29.624Z,0.52
2023-04-15T12:11:29.601Z,0.50
2023-04-15T12:12:29.536Z,0.52
2023-04-15T12:13:29.535Z,0.51
2023-04-15T12:14:29.619Z,0.51
2023-04-15T12:15:29.606Z,0.51
2023-04-15T12:16:29.563Z,0.51
2023-04-15T12:17:29.617Z,0.50
2023-04-15T12:18:30.542Z,0.50
2023-04-15T12:19:29.532Z,0.50
2023-04-15T12:20:29.539Z,0.51
2023-04-15T12:21:29.497Z,0.50
2023-04-15T12:22:29.498Z,0.48
2023-04-15T12:23:29.548Z,0.50
2023-04-15T12:24:29.565Z,0.50
2023-04-15T12:25:29.468Z,0.51
2023-04-15T12:26:29.499Z,0.50
2023-04-15T12:27:29.952Z,0.51
2023-04-15T12:28:29.429Z,0.50
2023-04-15T12:29:29.439Z,0.52
2023-04-15T12:30:29.452Z,0.52
2023-04-15T12:31:29.541Z,0.53
2023-04-15T12:32:29.453Z,0.51
2023-04-15T12:33:29.429Z,0.51
2023-04-15T12:34:29.512Z,0.51
2023-04-15T12:35:29.434Z,0.52
2023-04-15T12:36:29.406Z,0.52
2023-04-15T12:37:29.422Z,0.52
2023-04-15T12:38:29.410Z,0.52
2023-04-15T12:39:30.814Z,0.52
2023-04-15T12:40:29.387Z,0.53
2023-04-15T12:41:29.353Z,0.52
2023-04-15T12:42:29.434Z,0.53
2023-04-15T12:43:29.441Z,0.52
2023-04-15T12:44:29.459Z,0.52
2023-04-15T12:45:30.009Z,0.52
2023-04-15T12:46:29.546Z,0.52
2023-04-15T12:47:29.528Z,0.52
2023-04-15T12:48:29.568Z,0.51
2023-04-15T12:49:29.653Z,0.52
2023-04-15T12:50:29.652Z,0.52
2023-04-15T12:51:29.657Z,0.51
2023-04-15T12:52:29.709Z,0.51
2023-04-15T12:53:29.714Z,0.51
2023-04-15T12:54:29.785Z,0.52
2023-04-15T12:55:29.832Z,0.51
2023-04-15T12:56:29.832Z,0.52
2023-04-15T12:57:29.874Z,0.51
2023-04-15T12:58:29.890Z,0.51
2023-04-15T12:59:29.961Z,0.50
2023-04-15T13:00:29.979Z,0.51
2023-04-15T13:01:30.107Z,0.52
2023-04-15T13:02:30.201Z,0.51
2023-04-15T13:03:30.287Z,0.51
2023-04-15T13:04:30.213Z,0.50
2023-04-15T13:05:30.201Z,0.51
2023-04-15T13:06:30.242Z,0.50
2023-04-15T13:07:30.266Z,0.51
2023-04-15T13:08:30.384Z,0.51
2023-04-15T13:09:30.363Z,0.50
2023-04-15T13:10:30.438Z,0.50
2023-04-15T13:11:30.460Z,0.51
2023-04-15T13:12:30.489Z,0.50
2023-04-15T13:13:30.512Z,0.51
2023-04-15T13:14:30.580Z,0.51
2023-04-15T13:15:30.634Z,0.51
2023-04-15T13:16:30.804Z,0.51
2023-04-15T13:17:30.781Z,0.50
2023-04-15T13:18:30.864Z,0.51
2023-04-15T13:19:30.820Z,0.51